Franklin Furnace, Pennsylvania
Current Conditions -  °F | °C
As of 7:53 PM on Friday 24 Oct 2014 (Local Time) from KHGR Reporting Station
Clear Clear  
Wind Chill: 54°   Ceiling: Unl
Heat Index: 54°   Visibility: 10mi
Dew Point: 36°   Wind: 5mph
Humidity: 51%   Direction: 310°NW
Pressure: 29.95"   Gusts: NA
Location:  39.9438°N, 77.6827°W
Report Text: KHGR 242353Z AUTO 31004KT 10SM CLR 12/02 A2995 RMK AO2 SLP155 T01220022 10194 20122 51013
Loading
Personal Weather Stations






























Interactive Weather Map
Tropical Storm Tracking
New forecast layout! Learn more

10-Day Weather Forecast

Advertisements
Track Severe Weather on mobile